Nanticoke — VCQL — position and weather

sailwx.info

Track history (hours):
 
Tides and Currents Weather Stations Pressure Air Temp Water Temp Dewpoint Dewpoint Depression Visibility Wind Speed Wind Dir Waves Ship Positions

Nanticoke

Last reported at 2014-Nov-16 21:32 UTC. Time now 2014-Nov-23 14:47 UTC.
Position N 46°32' W 072°12'.

Length 222 m; draft 7.4 m.

Type: Cargo ship. MMSI: 316043000.

Date/timePositionNaut miles runAvg speedWind from/ knotsBaromVisibWave heightAir tempDewpointWater temp
2014-Nov-16 21:32N 46°32' W 072°12'1212.6
2014-Nov-16 20:33N 46°23' W 072°25'1212.2
2014-Nov-16 19:33N 46°16' W 072°39'1312.6
2014-Nov-16 18:33N 46°10' W 072°55'1212.3
2014-Nov-16 17:33N 46°03' W 073°09'1413.2
2014-Nov-16 16:32N 45°50' W 073°17'1313.4
2014-Nov-16 15:34N 45°40' W 073°28'8 8.2
2014-Nov-16 14:33N 45°32' W 073°32'0 0.0
2014-Nov-16 13:34N 45°32' W 073°32'0 0.0
2014-Nov-16 12:33N 45°32' W 073°32'0 0.0
2014-Nov-16 11:33N 45°32' W 073°32'0 0.0
2014-Nov-16 10:33N 45°32' W 073°32'0 0.0
2014-Nov-16 09:33N 45°32' W 073°32'0 0.0
2014-Nov-16 08:33N 45°32' W 073°32'0 0.0
2014-Nov-16 07:33N 45°32' W 073°32'0 0.2
2014-Nov-16 06:33N 45°32' W 073°32'7 7.3
2014-Nov-16 05:33N 45°39' W 073°29'7 7.2
2014-Nov-16 04:33N 45°45' W 073°24'9 8.8
2014-Nov-16 03:34N 45°52' W 073°16'9 8.6
2014-Nov-16 02:33N 46°00' W 073°11'18 8.5
2014-Nov-16 00:26N 46°12' W 072°51'9 9.8
2014-Nov-15 23:33N 46°16' W 072°40'8 8.3
2014-Nov-15 22:33N 46°21' W 072°31'9 8.7
2014-Nov-15 21:33N 46°26' W 072°21'8 8.2
2014-Nov-15 20:33N 46°32' W 072°12'8 8.3
2014-Nov-15 19:33N 46°35' W 072°01'  
2014-Nov-10 21:32N 46°33' W 072°09'1312.8
2014-Nov-10 20:33N 46°25' W 072°23'1211.9
2014-Nov-10 19:33N 46°17' W 072°36'1212.5
2014-Nov-10 18:33N 46°12' W 072°53'1412.3
2014-Nov-10 17:24N 46°03' W 073°09'1113.0
2014-Nov-10 16:33N 45°53' W 073°15'26 8.2
2014-Nov-10 13:23N 45°29' W 073°31'4 4.1
2014-Nov-10 12:30N 45°26' W 073°30'3 3.4
2014-Nov-10 11:33N 45°24' W 073°34'5 5.1
2014-Nov-10 10:33N 45°25' W 073°42'5 4.6
2014-Nov-10 09:33N 45°24' W 073°48'7 7.1
2014-Nov-10 08:33N 45°19' W 073°55'2 1.6
2014-Nov-10 07:33N 45°17' W 073°56'8 8.2
2014-Nov-10 06:32N 45°14' W 074°07'1 0.5
2014-Nov-10 04:33N 45°13' W 074°05'0 0.0
2014-Nov-10 03:34N 45°13' W 074°05'0 0.0
2014-Nov-10 02:33N 45°13' W 074°05'0 0.0
2014-Nov-10 01:33N 45°13' W 074°05'0 0.0
2014-Nov-10 00:33N 45°13' W 074°05'0 0.0
2014-Nov-09 23:34N 45°13' W 074°05'0 0.0
2014-Nov-09 22:33N 45°13' W 074°05'0 0.2
2014-Nov-09 21:33N 45°13' W 074°05'7 7.2
2014-Nov-09 20:33N 45°17' W 073°56'2 2.1
2014-Nov-09 19:33N 45°19' W 073°55'2 1.6
2014-Nov-09 18:33N 45°20' W 073°54'9 8.6
2014-Nov-09 17:33N 45°24' W 073°43'6 5.8
2014-Nov-09 16:33N 45°24' W 073°35'2 2.0
2014-Nov-09 15:33N 45°24' W 073°32'5 4.8
2014-Nov-09 14:33N 45°29' W 073°31'1 1.0
2014-Nov-09 13:33N 45°30' W 073°31'3 2.7
2014-Nov-09 12:33N 45°33' W 073°31'49 6.6
2014-Nov-09 05:04N 46°13' W 072°49'510.5
2014-Nov-09 04:33N 46°16' W 072°43'8 8.3
2014-Nov-09 03:33N 46°20' W 072°32'9 8.9
2014-Nov-09 02:33N 46°25' W 072°22'7 7.5
2014-Nov-09 01:33N 46°30' W 072°14'  
Track history (hours):
 
Tides and Currents Weather Stations Pressure Air Temp Water Temp Dewpoint Dewpoint Depression Visibility Wind Speed Wind Dir Waves Ship Positions

Nanticoke

Last reported at 2014-Nov-16 21:32 UTC. Time now 2014-Nov-23 14:47 UTC.
Position N 46°32' W 072°12'.

Length 222 m; draft 7.4 m.

Type: Cargo ship. MMSI: 316043000.

Date/timePositionNaut miles runAvg speedWind from/ knotsBaromVisibWave heightAir tempDewpointWater temp
2014-Nov-16 21:32N 46°32' W 072°12'1212.6
2014-Nov-16 20:33N 46°23' W 072°25'1212.2
2014-Nov-16 19:33N 46°16' W 072°39'1312.6
2014-Nov-16 18:33N 46°10' W 072°55'1212.3
2014-Nov-16 17:33N 46°03' W 073°09'1413.2
2014-Nov-16 16:32N 45°50' W 073°17'1313.4
2014-Nov-16 15:34N 45°40' W 073°28'8 8.2
2014-Nov-16 14:33N 45°32' W 073°32'0 0.0
2014-Nov-16 13:34N 45°32' W 073°32'0 0.0
2014-Nov-16 12:33N 45°32' W 073°32'0 0.0
2014-Nov-16 11:33N 45°32' W 073°32'0 0.0
2014-Nov-16 10:33N 45°32' W 073°32'0 0.0
2014-Nov-16 09:33N 45°32' W 073°32'0 0.0
2014-Nov-16 08:33N 45°32' W 073°32'0 0.0
2014-Nov-16 07:33N 45°32' W 073°32'0 0.2
2014-Nov-16 06:33N 45°32' W 073°32'7 7.3
2014-Nov-16 05:33N 45°39' W 073°29'7 7.2
2014-Nov-16 04:33N 45°45' W 073°24'9 8.8
2014-Nov-16 03:34N 45°52' W 073°16'9 8.6
2014-Nov-16 02:33N 46°00' W 073°11'18 8.5
2014-Nov-16 00:26N 46°12' W 072°51'9 9.8
2014-Nov-15 23:33N 46°16' W 072°40'8 8.3
2014-Nov-15 22:33N 46°21' W 072°31'9 8.7
2014-Nov-15 21:33N 46°26' W 072°21'8 8.2
2014-Nov-15 20:33N 46°32' W 072°12'8 8.3
2014-Nov-15 19:33N 46°35' W 072°01'  
2014-Nov-10 21:32N 46°33' W 072°09'1312.8
2014-Nov-10 20:33N 46°25' W 072°23'1211.9
2014-Nov-10 19:33N 46°17' W 072°36'1212.5
2014-Nov-10 18:33N 46°12' W 072°53'1412.3
2014-Nov-10 17:24N 46°03' W 073°09'1113.0
2014-Nov-10 16:33N 45°53' W 073°15'26 8.2
2014-Nov-10 13:23N 45°29' W 073°31'4 4.1
2014-Nov-10 12:30N 45°26' W 073°30'3 3.4
2014-Nov-10 11:33N 45°24' W 073°34'5 5.1
2014-Nov-10 10:33N 45°25' W 073°42'5 4.6
2014-Nov-10 09:33N 45°24' W 073°48'7 7.1
2014-Nov-10 08:33N 45°19' W 073°55'2 1.6
2014-Nov-10 07:33N 45°17' W 073°56'8 8.2
2014-Nov-10 06:32N 45°14' W 074°07'1 0.5
2014-Nov-10 04:33N 45°13' W 074°05'0 0.0
2014-Nov-10 03:34N 45°13' W 074°05'0 0.0
2014-Nov-10 02:33N 45°13' W 074°05'0 0.0
2014-Nov-10 01:33N 45°13' W 074°05'0 0.0
2014-Nov-10 00:33N 45°13' W 074°05'0 0.0
2014-Nov-09 23:34N 45°13' W 074°05'0 0.0
2014-Nov-09 22:33N 45°13' W 074°05'0 0.2
2014-Nov-09 21:33N 45°13' W 074°05'7 7.2
2014-Nov-09 20:33N 45°17' W 073°56'2 2.1
2014-Nov-09 19:33N 45°19' W 073°55'2 1.6
2014-Nov-09 18:33N 45°20' W 073°54'9 8.6
2014-Nov-09 17:33N 45°24' W 073°43'6 5.8
2014-Nov-09 16:33N 45°24' W 073°35'2 2.0
2014-Nov-09 15:33N 45°24' W 073°32'5 4.8
2014-Nov-09 14:33N 45°29' W 073°31'1 1.0
2014-Nov-09 13:33N 45°30' W 073°31'3 2.7
2014-Nov-09 12:33N 45°33' W 073°31'49 6.6
2014-Nov-09 05:04N 46°13' W 072°49'510.5
2014-Nov-09 04:33N 46°16' W 072°43'8 8.3
2014-Nov-09 03:33N 46°20' W 072°32'9 8.9
2014-Nov-09 02:33N 46°25' W 072°22'7 7.5
2014-Nov-09 01:33N 46°30' W 072°14'  

Dump ship's entire track history